Time;durP1;ratioP1;P1;durP2;ratioP2;P2;SDS_P1;SDS_P2;PMS_P1;PMS_P2;Temp;Humidity;BMP_temperature;BMP_pressure;BME280_temperature;BME280_humidity;BME280_pressure;Samples;Min_cycle;Max_cycle;Signal;HPM_P1;HPM_P2
2022/08/22 00:10:19;;;;;;;;;;;;;;;;;;;;;
2022/08/22 00:34:31;;;;;;;;;;;;;;;;;;;;;
2022/08/22 00:37:55;;;;;;;0.20;0.10;;;;;;;;;;6174712;23;20019;-86
2022/08/22 00:41:03;;;;;;;0.25;0.20;;;;;;;;;;6127205;23;20036;-87
2022/08/22 00:56:51;;;;;;;0.20;0.10;;;;;;;;;;6135818;23;20032;-87
2022/08/22 01:03:04;;;;;;;0.20;0.10;;;;;;;;;;6146211;23;20013;-88
2022/08/22 01:11:31;;;;;;;;;;;;;;;;;;;;;
2022/08/22 01:17:57;;;;;;;0.20;0.10;;;;;;;;;;6173490;22;20020;-87
2022/08/22 01:31:01;;;;;;;;;;;;;;;;;;;;;
2022/08/22 01:40:05;;;;;;;;;;;;;;;;;;;;;
2022/08/22 01:43:21;;;;;;;;;;;;;;;;;;;;;
2022/08/22 01:46:30;;;;;;;0.20;0.10;;;;;;;;;;6204423;23;20395;-87
2022/08/22 01:53:18;;;;;;;;;;;;;;;;;;;;;
2022/08/22 02:10:13;;;;;;;0.20;0.10;;;;;;;;;;6114811;23;20025;-88
2022/08/22 02:13:23;;;;;;;;;;;;;;;;;;;;;
2022/08/22 02:23:23;;;;;;;0.20;0.10;;;;;;;;;;6114715;23;20048;-88
2022/08/22 02:26:32;;;;;;;0.20;0.10;;;;;;;;;;6088775;23;20018;-87
2022/08/22 02:42:44;;;;;;;0.20;0.10;;;;;;;;;;6057159;23;20025;-88
2022/08/22 02:46:02;;;;;;;0.20;0.10;;;;;;;;;;6056939;23;20023;-88
2022/08/22 02:55:44;;;;;;;0.20;0.10;;;;;;;;;;6081044;23;20058;-87
2022/08/22 02:58:43;;;;;;;0.30;0.30;;;;;;;;;;6029902;23;20023;-87
2022/08/22 03:08:02;;;;;;;0.20;0.10;;;;;;;;;;6172815;23;20465;-86
2022/08/22 03:39:13;;;;;;;0.20;0.10;;;;;;;;;;6295205;22;20021;-84
2022/08/22 03:49:00;;;;;;;0.20;0.10;;;;;;;;;;6165390;23;20025;-86
2022/08/22 03:52:03;;;;;;;0.20;0.10;;;;;;;;;;6148314;23;20450;-86
2022/08/22 03:55:24;;;;;;;0.20;0.10;;;;;;;;;;6172939;23;20013;-85
2022/08/22 03:58:34;;;;;;;;;;;;;;;;;;;;;
2022/08/22 04:01:30;;;;;;;;;;;;;;;;;;;;;
2022/08/22 04:11:50;;;;;;;;;;;;;;;;;;;;;
2022/08/22 04:48:45;;;;;;;0.20;0.10;;;;;;;;;;6201838;22;20056;-86
2022/08/22 04:51:48;;;;;;;0.20;0.10;;;;;;;;;;6207530;23;20467;-86
2022/08/22 04:55:02;;;;;;;0.20;0.10;;;;;;;;;;6204354;23;20356;-85
2022/08/22 04:57:40;;;;;;;0.20;0.10;;;;;;;;;;6235194;22;20015;-85
2022/08/22 05:03:09;;;;;;;0.20;0.10;;;;;;;;;;6196297;22;20044;-86
2022/08/22 05:12:13;;;;;;;1.05;0.20;;;;;;;;;;6144715;23;20086;-86
2022/08/22 05:18:16;;;;;;;0.20;0.10;;;;;;;;;;6199300;23;19915;-87
2022/08/22 05:21:28;;;;;;;0.20;0.10;;;;;;;;;;6180285;23;20020;-87
2022/08/22 05:31:13;;;;;;;;;;;;;;;;;;;;;
2022/08/22 05:34:29;;;;;;;;;;;;;;;;;;;;;
2022/08/22 05:37:22;;;;;;;0.20;0.10;;;;;;;;;;6265560;22;20193;-86
2022/08/22 05:40:54;;;;;;;0.20;0.10;;;;;;;;;;6211020;23;20012;-85
2022/08/22 05:43:30;;;;;;;0.20;0.10;;;;;;;;;;6096769;23;20020;-86
2022/08/22 05:46:25;;;;;;;0.20;0.10;;;;;;;;;;6164577;23;20024;-86
2022/08/22 05:49:02;;;;;;;0.20;0.10;;;;;;;;;;6208324;23;20020;-87
2022/08/22 05:51:49;;;;;;;0.20;0.10;;;;;;;;;;6201434;23;20013;-86
2022/08/22 05:54:22;;;;;;;0.20;0.10;;;;;;;;;;6224955;22;20016;-86
2022/08/22 05:57:31;;;;;;;0.20;0.10;;;;;;;;;;6214125;22;20016;-85
2022/08/22 06:01:14;;;;;;;0.35;0.20;;;;;;;;;;6058260;23;20230;-87
2022/08/22 06:18:01;;;;;;;0.20;0.10;;;;;;;;;;6221603;22;20023;-86
2022/08/22 06:27:46;;;;;;;0.22;0.15;;;;;;;;;;6170918;23;20120;-83
2022/08/22 06:30:13;;;;;;;0.20;0.10;;;;;;;;;;6171236;23;20028;-81
2022/08/22 06:32:41;;;;;;;0.20;0.10;;;;;;;;;;6168380;23;20012;-83
2022/08/22 06:35:16;;;;;;;0.20;0.10;;;;;;;;;;6167666;23;20353;-83
2022/08/22 06:37:44;;;;;;;0.20;0.10;;;;;;;;;;6115405;23;20462;-83
2022/08/22 06:40:12;;;;;;;0.20;0.10;;;;;;;;;;6119276;23;20078;-82
2022/08/22 06:42:43;;;;;;;0.20;0.10;;;;;;;;;;6168386;23;20374;-82
2022/08/22 06:45:10;;;;;;;0.20;0.10;;;;;;;;;;6169835;22;20081;-82
2022/08/22 06:47:39;;;;;;;0.20;0.10;;;;;;;;;;6122062;23;20017;-83
2022/08/22 06:50:07;;;;;;;0.20;0.10;;;;;;;;;;6122416;23;20021;-82
2022/08/22 06:52:37;;;;;;;0.20;0.10;;;;;;;;;;6171562;23;20100;-83
2022/08/22 06:55:06;;;;;;;0.20;0.10;;;;;;;;;;6127284;23;20520;-83
2022/08/22 06:57:33;;;;;;;0.20;0.10;;;;;;;;;;6123351;23;20013;-83
2022/08/22 07:00:01;;;;;;;0.20;0.10;;;;;;;;;;6121454;23;20016;-84
2022/08/22 07:02:27;;;;;;;0.20;0.10;;;;;;;;;;6167139;23;20396;-82
2022/08/22 07:04:53;;;;;;;0.20;0.10;;;;;;;;;;6171470;23;20021;-83
2022/08/22 07:07:23;;;;;;;0.20;0.10;;;;;;;;;;6123809;23;20024;-83
2022/08/22 07:09:54;;;;;;;0.20;0.10;;;;;;;;;;6122160;23;20017;-83
2022/08/22 07:12:21;;;;;;;0.20;0.10;;;;;;;;;;6121842;23;20081;-82
2022/08/22 07:14:49;;;;;;;0.20;0.10;;;;;;;;;;6123472;23;20472;-83
2022/08/22 07:17:21;;;;;;;0.20;0.10;;;;;;;;;;6122752;23;20194;-82
2022/08/22 07:19:56;;;;;;;0.20;0.10;;;;;;;;;;6171779;23;20020;-83
2022/08/22 07:22:24;;;;;;;0.20;0.10;;;;;;;;;;6170989;22;20039;-83
2022/08/22 07:24:52;;;;;;;0.20;0.10;;;;;;;;;;6171560;23;20021;-83
2022/08/22 07:27:24;;;;;;;0.20;0.10;;;;;;;;;;6171782;22;20066;-83
2022/08/22 07:29:56;;;;;;;0.20;0.10;;;;;;;;;;6171566;23;20100;-83
2022/08/22 07:32:22;;;;;;;;;;;;;;;;;;6118475;23;20017;-84
2022/08/22 07:35:08;;;;;;;0.20;0.10;;;;;;;;;;6273166;22;19961;-83
2022/08/22 07:37:35;;;;;;;0.20;0.10;;;;;;;;;;6118316;23;20020;-83
2022/08/22 07:40:08;;;;;;;0.20;0.10;;;;;;;;;;6168010;23;20013;-84
2022/08/22 07:42:47;;;;;;;0.20;0.10;;;;;;;;;;6170404;23;20027;-82
2022/08/22 07:45:21;;;;;;;0.20;0.10;;;;;;;;;;6169934;23;20114;-83
2022/08/22 07:47:51;;;;;;;0.20;0.10;;;;;;;;;;6120649;23;20013;-83
2022/08/22 07:50:22;;;;;;;0.20;0.10;;;;;;;;;;6169565;23;20120;-83
2022/08/22 07:52:49;;;;;;;0.20;0.10;;;;;;;;;;6122088;23;20063;-83
2022/08/22 07:55:16;;;;;;;0.30;0.30;;;;;;;;;;6170702;23;20017;-83
2022/08/22 07:57:44;;;;;;;0.20;0.10;;;;;;;;;;6124366;23;20020;-82
2022/08/22 08:00:18;;;;;;;0.20;0.10;;;;;;;;;;6122817;23;20016;-84
2022/08/22 08:02:49;;;;;;;0.20;0.10;;;;;;;;;;6122032;23;20169;-84
2022/08/22 08:05:16;;;;;;;0.20;0.10;;;;;;;;;;6119791;23;20195;-84
2022/08/22 08:07:44;;;;;;;0.20;0.10;;;;;;;;;;6121633;23;20017;-83
2022/08/22 08:10:13;;;;;;;0.20;0.10;;;;;;;;;;6169333;23;20086;-82
2022/08/22 08:12:40;;;;;;;0.20;0.10;;;;;;;;;;6170199;23;20013;-82
2022/08/22 08:15:09;;;;;;;0.20;0.10;;;;;;;;;;6169951;23;20041;-83
2022/08/22 08:17:36;;;;;;;0.20;0.10;;;;;;;;;;6171253;23;20450;-83
2022/08/22 08:20:06;;;;;;;0.20;0.10;;;;;;;;;;6168584;23;20019;-84
2022/08/22 08:22:33;;;;;;;0.20;0.10;;;;;;;;;;6121994;23;20017;-83
2022/08/22 08:25:00;;;;;;;0.20;0.10;;;;;;;;;;6097046;23;20361;-84
2022/08/22 08:30:15;;;;;;;0.20;0.10;;;;;;;;;;6146160;23;20052;-82
2022/08/22 08:32:42;;;;;;;0.20;0.10;;;;;;;;;;6122293;23;20020;-83
2022/08/22 08:35:22;;;;;;;0.20;0.10;;;;;;;;;;6122346;23;20021;-84
2022/08/22 08:38:00;;;;;;;0.20;0.10;;;;;;;;;;6121162;23;20013;-83
2022/08/22 08:40:32;;;;;;;0.20;0.10;;;;;;;;;;6168087;23;20457;-83
2022/08/22 08:46:24;;;;;;;0.20;0.10;;;;;;;;;;6143446;23;20021;-83
2022/08/22 08:49:09;;;;;;;0.20;0.10;;;;;;;;;;6207429;23;20016;-85
2022/08/22 08:52:09;;;;;;;0.20;0.10;;;;;;;;;;6259304;22;20398;-83
2022/08/22 08:54:54;;;;;;;0.20;0.10;;;;;;;;;;6187633;22;20479;-83
2022/08/22 08:57:33;;;;;;;0.20;0.10;;;;;;;;;;6169549;23;20051;-82
2022/08/22 08:59:59;;;;;;;0.20;0.10;;;;;;;;;;6123006;23;20305;-83
2022/08/22 09:02:25;;;;;;;0.20;0.10;;;;;;;;;;6122523;23;20074;-82
2022/08/22 09:04:51;;;;;;;0.20;0.10;;;;;;;;;;6173675;23;20017;-82
2022/08/22 09:07:24;;;;;;;0.20;0.10;;;;;;;;;;6174520;23;20564;-82
2022/08/22 09:09:53;;;;;;;0.20;0.10;;;;;;;;;;6169541;23;20053;-83
2022/08/22 09:12:22;;;;;;;0.20;0.10;;;;;;;;;;6119339;23;20009;-82
2022/08/22 09:15:11;;;;;;;0.20;0.10;;;;;;;;;;6120925;23;20024;-83
2022/08/22 09:17:56;;;;;;;0.20;0.10;;;;;;;;;;6152649;23;20017;-83
2022/08/22 09:20:22;;;;;;;0.20;0.10;;;;;;;;;;6122216;23;20021;-83
2022/08/22 09:23:07;;;;;;;0.20;0.10;;;;;;;;;;6123181;23;20066;-82
2022/08/22 09:25:33;;;;;;;0.20;0.10;;;;;;;;;;6171387;22;20017;-83
2022/08/22 09:28:01;;;;;;;0.20;0.10;;;;;;;;;;6172516;23;20013;-84
2022/08/22 09:30:47;;;;;;;0.20;0.10;;;;;;;;;;6124146;23;20013;-84
2022/08/22 09:33:15;;;;;;;0.20;0.10;;;;;;;;;;6171952;23;20013;-83
2022/08/22 09:36:14;;;;;;;0.20;0.10;;;;;;;;;;6124123;23;20353;-84
2022/08/22 09:38:40;;;;;;;0.20;0.10;;;;;;;;;;6181289;23;20508;-87
2022/08/22 09:41:09;;;;;;;0.35;0.32;;;;;;;;;;6121640;23;20043;-87
2022/08/22 09:43:42;;;;;;;0.20;0.10;;;;;;;;;;6121510;23;20028;-82
2022/08/22 09:46:31;;;;;;;0.20;0.10;;;;;;;;;;6169915;23;20017;-84
2022/08/22 09:49:21;;;;;;;0.20;0.10;;;;;;;;;;6119940;23;20452;-82
2022/08/22 09:51:59;;;;;;;0.20;0.10;;;;;;;;;;6167750;23;20020;-83
2022/08/22 09:54:37;;;;;;;0.20;0.10;;;;;;;;;;6119080;23;20013;-85
2022/08/22 09:57:15;;;;;;;0.20;0.10;;;;;;;;;;6168945;23;20013;-83
2022/08/22 09:59:54;;;;;;;0.20;0.00;;;;;;;;;;6124293;23;20017;-82
2022/08/22 10:02:36;;;;;;;0.20;0.10;;;;;;;;;;6122528;23;20095;-86
2022/08/22 10:05:07;;;;;;;0.20;0.17;;;;;;;;;;6172579;23;20162;-83
2022/08/22 10:07:52;;;;;;;0.20;0.10;;;;;;;;;;6168455;23;20020;-84
2022/08/22 10:10:37;;;;;;;0.20;0.10;;;;;;;;;;6173421;23;20395;-85
2022/08/22 10:13:15;;;;;;;0.20;0.10;;;;;;;;;;6119592;23;20013;-83
2022/08/22 10:16:01;;;;;;;0.20;0.10;;;;;;;;;;6180216;22;20277;-81
2022/08/22 10:18:42;;;;;;;0.20;0.10;;;;;;;;;;6207500;23;20045;-83
2022/08/22 10:21:14;;;;;;;0.20;0.10;;;;;;;;;;6206739;23;20016;-83
2022/08/22 10:24:18;;;;;;;0.20;0.10;;;;;;;;;;6207401;23;20019;-85
2022/08/22 10:26:52;;;;;;;0.20;0.10;;;;;;;;;;6195781;22;20044;-83
2022/08/22 10:29:40;;;;;;;0.20;0.10;;;;;;;;;;6176489;23;20019;-84
2022/08/22 10:32:18;;;;;;;0.20;0.10;;;;;;;;;;6173690;22;20013;-85
2022/08/22 10:34:57;;;;;;;0.20;0.10;;;;;;;;;;6175649;22;20040;-85
2022/08/22 10:37:49;;;;;;;0.20;0.10;;;;;;;;;;6173719;22;20012;-84
2022/08/22 10:40:25;;;;;;;0.20;0.10;;;;;;;;;;6174687;22;20021;-85
2022/08/22 10:42:57;;;;;;;0.20;0.10;;;;;;;;;;6173970;23;20017;-83
2022/08/22 10:45:26;;;;;;;0.20;0.10;;;;;;;;;;6149442;23;20457;-86
2022/08/22 10:47:56;;;;;;;;;;;;;;;;;;6151184;23;20031;-83
2022/08/22 10:50:28;;;;;;;0.20;0.10;;;;;;;;;;6176328;22;19916;-85
2022/08/22 10:56:08;;;;;;;0.20;0.10;;;;;;;;;;6177107;23;20027;-83
2022/08/22 10:58:41;;;;;;;0.20;0.10;;;;;;;;;;6151686;23;20017;-85
2022/08/22 11:01:08;;;;;;;0.20;0.10;;;;;;;;;;6200434;23;20016;-82
2022/08/22 11:03:34;;;;;;;0.20;0.10;;;;;;;;;;6149159;23;20016;-83
2022/08/22 11:06:11;;;;;;;0.20;0.20;;;;;;;;;;6149970;23;20478;-85
2022/08/22 11:08:55;;;;;;;0.20;0.10;;;;;;;;;;6150290;23;20138;-85
2022/08/22 11:11:31;;;;;;;0.20;0.10;;;;;;;;;;6150211;23;20391;-85
2022/08/22 11:14:10;;;;;;;0.20;0.10;;;;;;;;;;6149991;23;20142;-84
2022/08/22 11:16:55;;;;;;;0.20;0.10;;;;;;;;;;6153140;22;20012;-85
2022/08/22 11:19:30;;;;;;;0.20;0.10;;;;;;;;;;6199098;23;20009;-85
2022/08/22 11:22:09;;;;;;;0.20;0.20;;;;;;;;;;6199832;23;20019;-83
2022/08/22 11:24:42;;;;;;;0.20;0.10;;;;;;;;;;6151877;23;20092;-83
2022/08/22 11:27:08;;;;;;;;;;;;;;;;;;6201896;23;20017;-84
2022/08/22 11:29:50;;;;;;;0.20;0.10;;;;;;;;;;6172567;22;20217;-84
2022/08/22 11:32:16;;;;;;;;;;;;;;;;;;6202645;23;20009;-82
2022/08/22 11:34:48;;;;;;;0.20;0.10;;;;;;;;;;6175241;23;19980;-86
2022/08/22 11:37:33;;;;;;;0.20;0.10;;;;;;;;;;6150055;23;20017;-83
2022/08/22 11:40:18;;;;;;;0.20;0.10;;;;;;;;;;6200456;23;20027;-88
2022/08/22 11:42:47;;;;;;;0.20;0.10;;;;;;;;;;6172764;23;20352;-87
2022/08/22 11:45:23;;;;;;;0.20;0.10;;;;;;;;;;6151928;23;20023;-85
2022/08/22 11:48:01;;;;;;;0.20;0.10;;;;;;;;;;6149269;23;20044;-85
2022/08/22 11:50:49;;;;;;;0.20;0.10;;;;;;;;;;6151824;23;20091;-86
2022/08/22 11:53:34;;;;;;;0.20;0.10;;;;;;;;;;6197609;23;20401;-85
2022/08/22 11:56:13;;;;;;;0.20;0.10;;;;;;;;;;6148985;23;20021;-84
2022/08/22 11:58:48;;;;;;;0.20;0.10;;;;;;;;;;6147163;23;20012;-84
2022/08/22 12:01:31;;;;;;;0.20;0.10;;;;;;;;;;6196129;23;20017;-85
2022/08/22 12:04:06;;;;;;;0.20;0.10;;;;;;;;;;6146289;23;20394;-83
2022/08/22 12:06:41;;;;;;;0.20;0.10;;;;;;;;;;6148471;23;20013;-84
2022/08/22 12:09:28;;;;;;;0.20;0.10;;;;;;;;;;6196937;23;20048;-83
2022/08/22 12:12:01;;;;;;;0.25;0.15;;;;;;;;;;6172138;23;20056;-83
2022/08/22 12:14:26;;;;;;;;;;;;;;;;;;6151422;23;20247;-85
2022/08/22 12:17:05;;;;;;;0.20;0.10;;;;;;;;;;6171135;23;20418;-82
2022/08/22 12:19:37;;;;;;;0.20;0.10;;;;;;;;;;6196235;23;20020;-83
2022/08/22 12:22:03;;;;;;;;;;;;;;;;;;6146370;23;20013;-84
2022/08/22 12:24:37;;;;;;;0.20;0.13;;;;;;;;;;6173075;23;20394;-82
2022/08/22 12:27:20;;;;;;;0.20;0.10;;;;;;;;;;6147243;23;20346;-82
2022/08/22 12:29:52;;;;;;;0.20;0.10;;;;;;;;;;6198387;22;20333;-82
2022/08/22 12:32:37;;;;;;;0.20;0.00;;;;;;;;;;6194735;23;20047;-81
2022/08/22 12:35:06;;;;;;;0.20;0.10;;;;;;;;;;6147542;23;20016;-84
2022/08/22 12:37:41;;;;;;;0.20;0.10;;;;;;;;;;6149087;23;20020;-84
2022/08/22 12:40:07;;;;;;;0.20;0.10;;;;;;;;;;6198656;23;20040;-82
2022/08/22 12:42:47;;;;;;;0.20;0.10;;;;;;;;;;6148413;23;20023;-82
2022/08/22 12:45:19;;;;;;;0.20;0.10;;;;;;;;;;6173626;23;20074;-83
2022/08/22 12:47:45;;;;;;;;;;;;;;;;;;6200058;23;20013;-81
2022/08/22 12:50:21;;;;;;;0.20;0.00;;;;;;;;;;6173956;23;20478;-85
2022/08/22 12:52:59;;;;;;;0.20;0.10;;;;;;;;;;6149930;23;20016;-86
2022/08/22 12:55:49;;;;;;;0.20;0.10;;;;;;;;;;6174165;23;20012;-84
2022/08/22 12:58:18;;;;;;;0.20;0.10;;;;;;;;;;6174414;23;20027;-84
2022/08/22 13:00:48;;;;;;;0.20;0.10;;;;;;;;;;6188913;22;20040;-82
2022/08/22 13:03:17;;;;;;;0.20;0.10;;;;;;;;;;6199198;23;20021;-82
2022/08/22 13:05:46;;;;;;;0.20;0.10;;;;;;;;;;6196603;23;20388;-82
2022/08/22 13:08:26;;;;;;;0.20;0.10;;;;;;;;;;6197484;23;20021;-85
2022/08/22 13:11:17;;;;;;;0.20;0.10;;;;;;;;;;6198242;23;20012;-85
2022/08/22 13:13:49;;;;;;;0.20;0.10;;;;;;;;;;6164199;22;20155;-85
2022/08/22 13:16:17;;;;;;;;;;;;;;;;;;6173222;23;20027;-85
2022/08/22 13:18:50;;;;;;;0.20;0.10;;;;;;;;;;6150700;23;19965;-85
2022/08/22 13:21:17;;;;;;;0.20;0.10;;;;;;;;;;6174662;23;20467;-88
2022/08/22 13:24:03;;;;;;;0.20;0.10;;;;;;;;;;6182773;22;20460;-85
2022/08/22 13:26:30;;;;;;;0.20;0.10;;;;;;;;;;6199786;22;20511;-86
2022/08/22 13:28:57;;;;;;;0.20;0.10;;;;;;;;;;6199148;23;20472;-86
2022/08/22 13:31:36;;;;;;;0.20;0.10;;;;;;;;;;6199983;23;20469;-84
2022/08/22 13:34:02;;;;;;;0.22;0.22;;;;;;;;;;6199247;23;20231;-84
2022/08/22 13:36:31;;;;;;;0.20;0.10;;;;;;;;;;6199021;23;20393;-86
2022/08/22 13:39:05;;;;;;;0.20;0.10;;;;;;;;;;6198969;23;20047;-85
2022/08/22 13:41:34;;;;;;;0.28;0.17;;;;;;;;;;6173379;23;20027;-86
2022/08/22 13:44:06;;;;;;;0.20;0.10;;;;;;;;;;6207830;23;20224;-86
2022/08/22 13:46:33;;;;;;;0.20;0.10;;;;;;;;;;6213231;23;20025;-86
2022/08/22 13:49:01;;;;;;;0.20;0.10;;;;;;;;;;6208796;23;20027;-85
2022/08/22 13:51:38;;;;;;;0.20;0.10;;;;;;;;;;6182308;23;20017;-88
2022/08/22 13:54:40;;;;;;;0.20;0.10;;;;;;;;;;6179109;23;20055;-87
2022/08/22 13:57:27;;;;;;;0.20;0.10;;;;;;;;;;6187098;23;20055;-87
2022/08/22 14:03:20;;;;;;;0.20;0.10;;;;;;;;;;6165056;22;20086;-86
2022/08/22 14:05:57;;;;;;;0.20;0.10;;;;;;;;;;6180521;22;20052;-85
2022/08/22 14:08:32;;;;;;;0.20;0.10;;;;;;;;;;6178143;23;20017;-87
2022/08/22 14:11:20;;;;;;;0.20;0.10;;;;;;;;;;6198917;22;20067;-86
2022/08/22 14:17:02;;;;;;;0.20;0.10;;;;;;;;;;6170473;22;20005;-82
2022/08/22 14:19:36;;;;;;;0.20;0.10;;;;;;;;;;6175592;22;20017;-82
2022/08/22 14:22:02;;;;;;;0.20;0.10;;;;;;;;;;6172774;22;20077;-81
2022/08/22 14:24:31;;;;;;;0.20;0.10;;;;;;;;;;6200446;22;20069;-82
2022/08/22 14:27:00;;;;;;;0.20;0.10;;;;;;;;;;6175191;22;20020;-82
2022/08/22 14:29:29;;;;;;;0.20;0.10;;;;;;;;;;6152436;23;20091;-81
2022/08/22 14:32:18;;;;;;;0.20;0.10;;;;;;;;;;6150117;23;20031;-83
2022/08/22 14:34:46;;;;;;;0.20;0.10;;;;;;;;;;6203204;23;20028;-83
2022/08/22 14:37:19;;;;;;;0.20;0.20;;;;;;;;;;6149168;23;20031;-81
2022/08/22 14:39:50;;;;;;;0.20;0.10;;;;;;;;;;6200889;23;20357;-83
2022/08/22 14:42:25;;;;;;;0.20;0.10;;;;;;;;;;6197442;23;20013;-83
2022/08/22 14:45:15;;;;;;;0.20;0.10;;;;;;;;;;6148195;23;20013;-82
2022/08/22 14:47:45;;;;;;;0.20;0.10;;;;;;;;;;6147817;23;20061;-82
2022/08/22 14:50:30;;;;;;;0.20;0.10;;;;;;;;;;6173025;23;20100;-82
2022/08/22 14:53:04;;;;;;;0.20;0.10;;;;;;;;;;6197477;23;20020;-84
2022/08/22 14:55:31;;;;;;;0.20;0.10;;;;;;;;;;6149470;23;20095;-84
2022/08/22 14:57:59;;;;;;;0.20;0.10;;;;;;;;;;6147787;23;20012;-81
2022/08/22 15:00:31;;;;;;;0.20;0.10;;;;;;;;;;6197932;23;20027;-82
2022/08/22 15:03:08;;;;;;;0.20;0.10;;;;;;;;;;6149177;23;20013;-82
2022/08/22 15:06:01;;;;;;;0.20;0.10;;;;;;;;;;6149801;23;20016;-81
2022/08/22 15:08:27;;;;;;;;;;;;;;;;;;6198070;23;20017;-81
2022/08/22 15:11:13;;;;;;;0.20;0.10;;;;;;;;;;6171492;23;19976;-81
2022/08/22 15:13:41;;;;;;;0.20;0.10;;;;;;;;;;6198989;22;20211;-81
2022/08/22 15:16:15;;;;;;;0.20;0.10;;;;;;;;;;6198823;23;20050;-81
2022/08/22 15:18:43;;;;;;;0.22;0.13;;;;;;;;;;6147948;22;20020;-81
2022/08/22 15:21:27;;;;;;;0.20;0.10;;;;;;;;;;6173233;23;20059;-80
2022/08/22 15:23:55;;;;;;;0.20;0.10;;;;;;;;;;6197939;23;20042;-80
2022/08/22 15:26:26;;;;;;;0.20;0.10;;;;;;;;;;6198329;23;20012;-81
2022/08/22 15:28:55;;;;;;;0.20;0.17;;;;;;;;;;6198338;23;20013;-81
2022/08/22 15:31:22;;;;;;;0.20;0.10;;;;;;;;;;6172185;23;20492;-81
2022/08/22 15:33:48;;;;;;;0.20;0.10;;;;;;;;;;6197652;23;20024;-83
2022/08/22 15:36:17;;;;;;;0.20;0.10;;;;;;;;;;6148694;23;20013;-84
2022/08/22 15:38:44;;;;;;;0.20;0.10;;;;;;;;;;6196209;23;20027;-84
2022/08/22 15:41:27;;;;;;;0.20;0.20;;;;;;;;;;6200599;23;20021;-83
2022/08/22 15:44:05;;;;;;;0.20;0.10;;;;;;;;;;6176597;23;20407;-82
2022/08/22 15:46:43;;;;;;;0.20;0.10;;;;;;;;;;6201031;23;20017;-84
2022/08/22 15:49:23;;;;;;;0.20;0.10;;;;;;;;;;6150582;23;20020;-81
2022/08/22 15:52:01;;;;;;;0.20;0.10;;;;;;;;;;6201057;23;20518;-82
2022/08/22 15:54:31;;;;;;;0.20;0.10;;;;;;;;;;6201403;23;20017;-81
2022/08/22 15:57:16;;;;;;;0.20;0.10;;;;;;;;;;6199670;23;20017;-82
2022/08/22 15:59:48;;;;;;;0.20;0.10;;;;;;;;;;6152277;23;20028;-82
2022/08/22 16:02:35;;;;;;;0.20;0.10;;;;;;;;;;6153635;22;20024;-84
2022/08/22 16:05:10;;;;;;;0.20;0.10;;;;;;;;;;6153442;23;20012;-82
2022/08/22 16:07:47;;;;;;;0.20;0.10;;;;;;;;;;6201681;23;20067;-81
2022/08/22 16:10:22;;;;;;;0.20;0.10;;;;;;;;;;6154876;23;20420;-81
2022/08/22 16:13:07;;;;;;;0.20;0.10;;;;;;;;;;6155710;23;20009;-82
2022/08/22 16:15:49;;;;;;;0.20;0.10;;;;;;;;;;6155830;23;20031;-81
2022/08/22 16:18:34;;;;;;;0.20;0.10;;;;;;;;;;6179640;22;20017;-82
2022/08/22 16:21:07;;;;;;;0.20;0.10;;;;;;;;;;6182579;23;20021;-81
2022/08/22 16:23:48;;;;;;;0.20;0.10;;;;;;;;;;6204654;23;20522;-82
2022/08/22 16:26:15;;;;;;;0.20;0.10;;;;;;;;;;6154204;23;20013;-82
2022/08/22 16:28:53;;;;;;;0.20;0.10;;;;;;;;;;6203291;23;20017;-82
2022/08/22 16:31:33;;;;;;;0.20;0.10;;;;;;;;;;6154835;23;20503;-82
2022/08/22 16:34:18;;;;;;;0.20;0.10;;;;;;;;;;6155250;23;20046;-82
2022/08/22 16:36:54;;;;;;;0.20;0.10;;;;;;;;;;6151606;23;20008;-84
2022/08/22 16:39:20;;;;;;;0.20;0.10;;;;;;;;;;6152041;23;20017;-83
2022/08/22 16:41:47;;;;;;;0.20;0.10;;;;;;;;;;6152288;23;20012;-81
2022/08/22 16:44:34;;;;;;;0.20;0.10;;;;;;;;;;6202368;23;20027;-82
2022/08/22 16:47:08;;;;;;;0.20;0.10;;;;;;;;;;6201771;23;20050;-82
2022/08/22 16:49:38;;;;;;;0.20;0.10;;;;;;;;;;6151135;23;20334;-80
2022/08/22 16:52:20;;;;;;;0.20;0.10;;;;;;;;;;6149942;23;20048;-82
2022/08/22 16:54:51;;;;;;;0.20;0.10;;;;;;;;;;6155714;23;20104;-82
2022/08/22 16:57:36;;;;;;;0.20;0.10;;;;;;;;;;6204062;23;20349;-83
2022/08/22 17:00:12;;;;;;;0.20;0.10;;;;;;;;;;6154438;23;20047;-80
2022/08/22 17:02:41;;;;;;;0.20;0.10;;;;;;;;;;6158274;23;20017;-81
2022/08/22 17:05:13;;;;;;;0.20;0.10;;;;;;;;;;6155227;23;20013;-81
2022/08/22 17:07:50;;;;;;;0.20;0.10;;;;;;;;;;6155460;23;20445;-83
2022/08/22 17:10:19;;;;;;;0.20;0.10;;;;;;;;;;6153795;23;20034;-83
2022/08/22 17:12:56;;;;;;;0.20;0.10;;;;;;;;;;6207611;23;20081;-82
2022/08/22 17:15:26;;;;;;;0.20;0.10;;;;;;;;;;6205523;23;20017;-80
2022/08/22 17:18:05;;;;;;;0.40;0.10;;;;;;;;;;6157121;22;20040;-81
2022/08/22 17:20:51;;;;;;;0.20;0.10;;;;;;;;;;6159949;23;20023;-81
2022/08/22 17:23:20;;;;;;;0.20;0.10;;;;;;;;;;6155749;23;20056;-81
2022/08/22 17:25:58;;;;;;;0.20;0.10;;;;;;;;;;6153713;23;20017;-82
2022/08/22 17:28:33;;;;;;;0.20;0.10;;;;;;;;;;6177345;23;20102;-81
2022/08/22 17:31:07;;;;;;;0.20;0.10;;;;;;;;;;6199053;23;20013;-81
2022/08/22 17:33:39;;;;;;;0.20;0.10;;;;;;;;;;6198705;23;20150;-81
2022/08/22 17:36:05;;;;;;;;;;;;;;;;;;6174149;23;20023;-82
2022/08/22 17:39:01;;;;;;;0.20;0.10;;;;;;;;;;6172743;23;19911;-80
2022/08/22 17:41:27;;;;;;;0.20;0.10;;;;;;;;;;6199655;23;20021;-80
2022/08/22 17:44:02;;;;;;;0.20;0.10;;;;;;;;;;6151594;23;20032;-80
2022/08/22 17:46:35;;;;;;;0.20;0.10;;;;;;;;;;6197257;23;20023;-80
2022/08/22 17:49:10;;;;;;;0.20;0.10;;;;;;;;;;6199741;23;20021;-81
2022/08/22 17:51:42;;;;;;;0.20;0.10;;;;;;;;;;6200331;23;20420;-81
2022/08/22 17:54:18;;;;;;;0.20;0.10;;;;;;;;;;6198553;23;20620;-82
2022/08/22 17:57:04;;;;;;;0.20;0.10;;;;;;;;;;6203967;23;20061;-81
2022/08/22 17:59:32;;;;;;;0.20;0.10;;;;;;;;;;6145172;23;20050;-81
2022/08/22 18:02:17;;;;;;;0.20;0.10;;;;;;;;;;6195490;23;20051;-81
2022/08/22 18:04:57;;;;;;;0.20;0.20;;;;;;;;;;6197467;23;20031;-82
2022/08/22 18:07:33;;;;;;;0.20;0.10;;;;;;;;;;6148867;22;20480;-83
2022/08/22 18:10:05;;;;;;;0.20;0.10;;;;;;;;;;6147225;23;20356;-84
2022/08/22 18:12:31;;;;;;;0.20;0.10;;;;;;;;;;6200581;23;20023;-83
2022/08/22 18:15:10;;;;;;;0.20;0.10;;;;;;;;;;6149183;23;20021;-81
2022/08/22 18:17:39;;;;;;;0.20;0.10;;;;;;;;;;6197872;23;20024;-84
2022/08/22 18:20:06;;;;;;;0.20;0.10;;;;;;;;;;6197407;23;20056;-83
2022/08/22 18:22:45;;;;;;;0.20;0.10;;;;;;;;;;6148770;23;20012;-84
2022/08/22 18:25:31;;;;;;;0.20;0.10;;;;;;;;;;6149935;23;20017;-82
2022/08/22 18:28:00;;;;;;;0.20;0.10;;;;;;;;;;6198154;22;20021;-84
2022/08/22 18:30:33;;;;;;;0.20;0.10;;;;;;;;;;6201542;23;20240;-84
2022/08/22 18:33:11;;;;;;;0.20;0.10;;;;;;;;;;6174153;23;20398;-84
2022/08/22 18:35:46;;;;;;;0.20;0.10;;;;;;;;;;6150747;23;20098;-83
2022/08/22 18:38:18;;;;;;;0.20;0.15;;;;;;;;;;6198575;23;20600;-84
2022/08/22 18:40:58;;;;;;;0.20;0.10;;;;;;;;;;6150290;23;20468;-85
2022/08/22 18:43:35;;;;;;;0.20;0.10;;;;;;;;;;6194911;23;20013;-83
2022/08/22 18:46:02;;;;;;;0.20;0.10;;;;;;;;;;6195109;23;20588;-84
2022/08/22 18:48:28;;;;;;;0.20;0.10;;;;;;;;;;6194260;23;20480;-84
2022/08/22 18:51:13;;;;;;;0.20;0.10;;;;;;;;;;6194799;23;20020;-83
2022/08/22 18:54:01;;;;;;;0.20;0.10;;;;;;;;;;6198734;23;20028;-83
2022/08/22 18:56:43;;;;;;;0.20;0.10;;;;;;;;;;6196505;23;20017;-83
2022/08/22 18:59:09;;;;;;;0.20;0.10;;;;;;;;;;6147422;23;20028;-83
2022/08/22 19:01:46;;;;;;;0.20;0.10;;;;;;;;;;6152656;23;20508;-85
2022/08/22 19:04:32;;;;;;;0.20;0.10;;;;;;;;;;6196693;23;20040;-86
2022/08/22 19:07:37;;;;;;;0.20;0.15;;;;;;;;;;6145797;23;20048;-84
2022/08/22 19:10:10;;;;;;;0.20;0.10;;;;;;;;;;6171363;23;20008;-83
2022/08/22 19:12:44;;;;;;;0.20;0.10;;;;;;;;;;6173369;23;20047;-85
2022/08/22 19:15:28;;;;;;;0.20;0.10;;;;;;;;;;6169801;23;20016;-84
2022/08/22 19:18:09;;;;;;;0.20;0.10;;;;;;;;;;6197528;22;20019;-84
2022/08/22 19:23:31;;;;;;;0.20;0.10;;;;;;;;;;6171785;23;20017;-85
2022/08/22 19:26:16;;;;;;;0.20;0.10;;;;;;;;;;6200477;23;20061;-85
2022/08/22 19:28:42;;;;;;;0.43;0.30;;;;;;;;;;6174856;23;20036;-85
2022/08/22 19:31:41;;;;;;;0.28;0.20;;;;;;;;;;6150354;23;20461;-84
2022/08/22 19:34:16;;;;;;;0.20;0.10;;;;;;;;;;6176232;23;20495;-87
2022/08/22 19:36:44;;;;;;;0.20;0.10;;;;;;;;;;6149893;23;20089;-84
2022/08/22 19:39:29;;;;;;;0.20;0.10;;;;;;;;;;6175172;23;20284;-84
2022/08/22 19:41:58;;;;;;;0.20;0.10;;;;;;;;;;6200517;23;20009;-85
2022/08/22 19:44:31;;;;;;;0.20;0.10;;;;;;;;;;6200983;23;20013;-84
2022/08/22 19:47:04;;;;;;;0.20;0.10;;;;;;;;;;6151778;23;20032;-85
2022/08/22 19:49:34;;;;;;;0.20;0.10;;;;;;;;;;6148201;23;20016;-85
2022/08/22 19:52:05;;;;;;;0.20;0.10;;;;;;;;;;6199113;23;20089;-84
2022/08/22 19:54:33;;;;;;;0.20;0.10;;;;;;;;;;6172613;23;20020;-84
2022/08/22 19:57:09;;;;;;;0.20;0.10;;;;;;;;;;6173362;23;20039;-84
2022/08/22 19:59:45;;;;;;;0.20;0.10;;;;;;;;;;6198735;23;20016;-84
2022/08/22 20:02:15;;;;;;;0.20;0.10;;;;;;;;;;6148865;23;20017;-85
2022/08/22 20:04:47;;;;;;;0.20;0.10;;;;;;;;;;6151517;23;20012;-84
2022/08/22 20:07:16;;;;;;;0.20;0.10;;;;;;;;;;6199950;23;20772;-84
2022/08/22 20:09:45;;;;;;;0.20;0.10;;;;;;;;;;6201200;23;20240;-84
2022/08/22 20:12:14;;;;;;;0.20;0.10;;;;;;;;;;6150999;23;20482;-86
2022/08/22 20:14:41;;;;;;;0.20;0.10;;;;;;;;;;6149445;23;20138;-86
2022/08/22 20:19:52;;;;;;;0.20;0.10;;;;;;;;;;6139988;23;20296;-85
2022/08/22 20:22:20;;;;;;;0.20;0.10;;;;;;;;;;6136173;22;20013;-86
2022/08/22 20:24:58;;;;;;;0.22;0.20;;;;;;;;;;6115221;23;20014;-85